Time;durP1;ratioP1;P1;durP2;ratioP2;P2;SDS_P1;SDS_P2;PMS_P1;PMS_P2;Temp;Humidity;BMP_temperature;BMP_pressure;BME280_temperature;BME280_humidity;BME280_pressure;Samples;Min_cycle;Max_cycle;Signal;HPM_P1;HPM_P2
2022/02/28 00:02:27;;;;;;;11.93;9.80;;;3.10;88.70;;;;;;5034977;28;20279;-50
2022/02/28 00:04:52;;;;;;;13.43;10.90;;;3.10;89.20;;;;;;5034681;28;20414;-53
2022/02/28 00:07:19;;;;;;;13.93;10.47;;;3.10;89.20;;;;;;5034386;28;20476;-49
2022/02/28 00:09:44;;;;;;;15.83;12.33;;;3.10;89.50;;;;;;5034672;28;20176;-54
2022/02/28 00:12:10;;;;;;;13.37;9.63;;;3.10;89.70;;;;;;5034798;28;20779;-51
2022/02/28 00:14:35;;;;;;;17.17;13.47;;;3.00;90.10;;;;;;5034472;28;20696;-50
2022/02/28 00:17:02;;;;;;;12.97;10.37;;;3.00;90.30;;;;;;5034238;28;20183;-50
2022/02/28 00:19:27;;;;;;;11.93;9.20;;;2.90;90.50;;;;;;5034474;28;20262;-53
2022/02/28 00:21:53;;;;;;;12.17;9.87;;;2.90;90.60;;;;;;5034298;28;20546;-49
2022/02/28 00:24:19;;;;;;;10.90;8.80;;;2.90;90.90;;;;;;5034360;28;20210;-51
2022/02/28 00:26:44;;;;;;;11.37;8.30;;;2.90;91.00;;;;;;5034172;28;20206;-48
2022/02/28 00:29:10;;;;;;;11.97;9.77;;;2.80;91.10;;;;;;5034309;28;20526;-50
2022/02/28 00:31:35;;;;;;;13.13;9.37;;;2.80;91.40;;;;;;5034242;28;20211;-54
2022/02/28 00:34:01;;;;;;;11.53;9.27;;;2.80;91.60;;;;;;5034232;28;20184;-49
2022/02/28 00:36:27;;;;;;;13.27;9.67;;;2.70;91.70;;;;;;5033839;28;20196;-51
2022/02/28 00:38:53;;;;;;;13.00;10.17;;;2.70;91.90;;;;;;5034019;28;20203;-50
2022/02/28 00:41:19;;;;;;;12.33;9.70;;;2.70;92.00;;;;;;5034052;28;20418;-52
2022/02/28 00:43:45;;;;;;;9.77;8.13;;;2.70;92.00;;;;;;5034077;28;20441;-49
2022/02/28 00:46:11;;;;;;;10.13;8.03;;;2.70;92.10;;;;;;5033648;28;20195;-49
2022/02/28 00:48:36;;;;;;;12.33;8.43;;;2.70;92.50;;;;;;5033892;28;20277;-49
2022/02/28 00:51:02;;;;;;;10.90;8.20;;;2.60;92.30;;;;;;5033900;28;20233;-51
2022/02/28 00:53:27;;;;;;;10.50;8.20;;;2.70;92.50;;;;;;5033863;28;20168;-49
2022/02/28 00:55:53;;;;;;;10.33;7.77;;;2.60;92.60;;;;;;5033316;28;20297;-52
2022/02/28 00:58:19;;;;;;;10.90;8.07;;;2.60;92.70;;;;;;5033804;28;20171;-52
2022/02/28 01:00:44;;;;;;;10.73;8.33;;;2.60;92.70;;;;;;5033857;28;20172;-50
2022/02/28 01:03:10;;;;;;;10.47;8.43;;;2.60;92.80;;;;;;5033678;28;20275;-53
2022/02/28 01:05:35;;;;;;;11.13;8.10;;;2.60;93.70;;;;;;5033164;28;20168;-53
2022/02/28 01:08:01;;;;;;;10.90;8.50;;;2.60;93.00;;;;;;5033544;28;20168;-50
2022/02/28 01:10:27;;;;;;;11.43;8.30;;;2.60;93.00;;;;;;5033671;28;20633;-50
2022/02/28 01:12:54;;;;;;;11.37;8.97;;;2.60;93.10;;;;;;5033530;28;20179;-49
2022/02/28 01:15:20;;;;;;;13.73;9.10;;;2.70;93.80;;;;;;5033286;28;20280;-48
2022/02/28 01:17:46;;;;;;;10.50;8.40;;;;;;;;;;5033245;28;20406;-50
2022/02/28 01:20:13;;;;;;;11.30;8.50;;;2.50;93.40;;;;;;5033341;28;20465;-51
2022/02/28 01:22:39;;;;;;;11.30;8.63;;;2.50;93.80;;;;;;5033239;28;20207;-49
2022/02/28 01:25:06;;;;;;;11.67;8.37;;;2.50;93.90;;;;;;5033371;28;20463;-51
2022/02/28 01:27:31;;;;;;;12.73;8.73;;;2.40;94.10;;;;;;5032999;28;20196;-47
2022/02/28 01:29:57;;;;;;;13.17;8.17;;;2.40;94.20;;;;;;5032923;28;20411;-50
2022/02/28 01:32:23;;;;;;;10.87;8.70;;;2.40;94.30;;;;;;5032973;28;20176;-54
2022/02/28 01:34:49;;;;;;;12.77;9.33;;;2.40;94.50;;;;;;5033008;28;21090;-47
2022/02/28 01:37:15;;;;;;;12.70;8.93;;;2.40;94.90;;;;;;5032862;28;20735;-48
2022/02/28 01:39:44;;;;;;;11.53;8.93;;;2.30;94.80;;;;;;5032989;28;20414;-50
2022/02/28 01:42:10;;;;;;;12.40;9.00;;;2.30;94.80;;;;;;5032945;28;20188;-50
2022/02/28 01:44:36;;;;;;;11.90;8.70;;;2.30;95.00;;;;;;5032823;28;20411;-53
2022/02/28 01:47:02;;;;;;;10.43;8.37;;;2.30;95.00;;;;;;5032473;28;20992;-49
2022/02/28 01:49:27;;;;;;;13.50;9.90;;;2.20;95.00;;;;;;5032980;28;20178;-49
2022/02/28 01:51:53;;;;;;;12.23;9.17;;;2.10;95.70;;;;;;5032745;28;20175;-49
2022/02/28 01:54:19;;;;;;;13.40;9.23;;;1.90;96.20;;;;;;5032689;28;20528;-51
2022/02/28 01:56:44;;;;;;;11.17;8.40;;;1.80;96.20;;;;;;5032225;28;20576;-48
2022/02/28 01:59:10;;;;;;;13.73;8.83;;;1.80;96.30;;;;;;5032187;28;20172;-49
2022/02/28 02:01:35;;;;;;;12.23;8.67;;;1.80;96.50;;;;;;5031281;28;20190;-48
2022/02/28 02:04:01;;;;;;;11.57;8.90;;;1.90;96.40;;;;;;5032430;28;20167;-50
2022/02/28 02:06:27;;;;;;;11.43;9.03;;;1.90;96.40;;;;;;5032102;28;20222;-49
2022/02/28 02:08:52;;;;;;;11.80;9.17;;;1.90;96.60;;;;;;5032489;28;20637;-49
2022/02/28 02:11:19;;;;;;;10.40;8.03;;;1.90;96.60;;;;;;5032467;28;20168;-49
2022/02/28 02:13:46;;;;;;;11.37;8.73;;;1.90;96.80;;;;;;5032325;28;20533;-49
2022/02/28 02:16:12;;;;;;;12.17;8.43;;;1.90;96.70;;;;;;5031924;28;20438;-51
2022/02/28 02:18:38;;;;;;;12.40;8.90;;;1.90;96.80;;;;;;5031303;28;20410;-52
2022/02/28 02:21:03;;;;;;;14.93;10.03;;;1.90;96.90;;;;;;5032321;28;20214;-50
2022/02/28 02:23:29;;;;;;;11.67;8.77;;;1.90;97.10;;;;;;5032210;28;20698;-49
2022/02/28 02:25:55;;;;;;;14.43;9.83;;;1.90;97.30;;;;;;5031886;28;20564;-51
2022/02/28 02:28:21;;;;;;;12.97;9.30;;;1.90;97.50;;;;;;5032136;28;20171;-50
2022/02/28 02:30:49;;;;;;;13.00;9.07;;;1.90;97.40;;;;;;5032149;28;20406;-55
2022/02/28 02:33:15;;;;;;;11.07;8.37;;;1.90;97.60;;;;;;5032093;28;20182;-49
2022/02/28 02:35:55;;;;;;;11.80;8.53;;;1.90;97.60;;;;;;5031536;28;20521;-54
2022/02/28 02:38:22;;;;;;;12.10;9.40;;;1.90;97.60;;;;;;5032072;28;20406;-52
2022/02/28 02:40:47;;;;;;;12.53;8.70;;;1.90;97.50;;;;;;5032039;28;20976;-51
2022/02/28 02:43:13;;;;;;;12.40;8.90;;;1.90;97.50;;;;;;5031974;28;20442;-54
2022/02/28 02:45:39;;;;;;;12.00;8.60;;;1.90;97.50;;;;;;5031521;28;20215;-52
2022/02/28 02:48:19;;;;;;;11.67;9.20;;;1.90;97.60;;;;;;5031932;28;20172;-50
2022/02/28 02:50:45;;;;;;;14.03;10.33;;;1.90;97.50;;;;;;5031826;28;20160;-51
2022/02/28 02:53:11;;;;;;;14.10;9.40;;;1.90;97.70;;;;;;5031964;28;20744;-51
2022/02/28 02:55:37;;;;;;;13.43;9.50;;;1.80;98.70;;;;;;5031232;28;20415;-50
2022/02/28 02:58:03;;;;;;;12.03;9.70;;;1.80;97.70;;;;;;5114588;22;20856;-50
2022/02/28 03:00:29;;;;;;;12.40;9.47;;;1.80;98.00;;;;;;5009100;28;20176;-56
2022/02/28 03:02:55;;;;;;;12.00;9.47;;;1.80;98.00;;;;;;5006258;28;20467;-53
2022/02/28 03:05:20;;;;;;;13.90;9.77;;;1.80;98.00;;;;;;5011570;28;20181;-52
2022/02/28 03:07:46;;;;;;;14.37;9.50;;;1.90;98.30;;;;;;5011341;28;20561;-53
2022/02/28 03:10:12;;;;;;;14.67;9.13;;;1.90;98.40;;;;;;5013148;28;20176;-55
2022/02/28 03:12:39;;;;;;;11.30;8.63;;;1.90;98.40;;;;;;5015981;28;20650;-55
2022/02/28 03:15:04;;;;;;;11.97;9.43;;;1.90;98.30;;;;;;5015801;28;20251;-54
2022/02/28 03:17:30;;;;;;;12.33;9.30;;;1.90;98.40;;;;;;5015126;28;20526;-56
2022/02/28 03:19:56;;;;;;;12.83;9.77;;;1.80;98.60;;;;;;5015703;28;20172;-52
2022/02/28 03:22:21;;;;;;;11.97;9.40;;;1.80;98.60;;;;;;5015834;28;20240;-54
2022/02/28 03:24:47;;;;;;;12.87;9.37;;;1.90;98.50;;;;;;5015763;28;20173;-54
2022/02/28 03:27:12;;;;;;;15.13;9.93;;;1.90;98.60;;;;;;5015430;28;20193;-52
2022/02/28 03:29:38;;;;;;;13.03;8.77;;;1.90;98.70;;;;;;5015502;28;20173;-56
2022/02/28 03:32:04;;;;;;;13.17;9.77;;;1.90;98.80;;;;;;5015569;28;20177;-52
2022/02/28 03:34:30;;;;;;;13.53;9.90;;;1.90;98.70;;;;;;5015182;28;20183;-54
2022/02/28 03:36:55;;;;;;;13.10;10.20;;;1.90;98.80;;;;;;5015147;28;20200;-54
2022/02/28 03:39:23;;;;;;;15.33;10.13;;;1.90;98.80;;;;;;5015385;28;20172;-52
2022/02/28 03:41:49;;;;;;;14.63;10.40;;;1.80;98.80;;;;;;5015323;28;20204;-52
2022/02/28 03:44:15;;;;;;;13.60;10.07;;;1.80;98.80;;;;;;5015400;28;20465;-55
2022/02/28 03:46:40;;;;;;;15.37;10.13;;;1.90;98.80;;;;;;5015140;28;20431;-55
2022/02/28 03:49:06;;;;;;;12.87;10.00;;;1.90;98.80;;;;;;5015232;28;20716;-51
2022/02/28 03:51:32;;;;;;;13.00;10.07;;;1.80;98.90;;;;;;5015326;28;20256;-54
2022/02/28 03:53:57;;;;;;;13.93;10.57;;;1.80;99.10;;;;;;5015203;28;20168;-57
2022/02/28 03:56:23;;;;;;;12.57;9.87;;;1.80;99.90;;;;;;5014771;28;20645;-54
2022/02/28 03:58:48;;;;;;;13.93;10.40;;;1.80;99.10;;;;;;5013726;28;20231;-50
2022/02/28 04:01:14;;;;;;;14.13;10.10;;;1.80;99.00;;;;;;5015162;28;20180;-53
2022/02/28 04:03:40;;;;;;;12.37;9.57;;;1.80;98.90;;;;;;5014835;28;20230;-53
2022/02/28 04:06:05;;;;;;;16.63;10.33;;;1.80;99.00;;;;;;5014760;28;20560;-51
2022/02/28 04:08:31;;;;;;;14.43;9.90;;;1.80;99.20;;;;;;5014426;28;20215;-49
2022/02/28 04:10:56;;;;;;;11.13;9.27;;;1.80;99.20;;;;;;5014880;28;20173;-50
2022/02/28 04:13:22;;;;;;;14.13;10.70;;;1.70;99.40;;;;;;5014722;28;20173;-53
2022/02/28 04:15:47;;;;;;;14.17;9.93;;;1.70;99.40;;;;;;5014595;28;20187;-51
2022/02/28 04:18:13;;;;;;;16.17;10.00;;;1.80;99.50;;;;;;5014564;28;20292;-50
2022/02/28 04:20:39;;;;;;;13.03;9.67;;;1.70;99.60;;;;;;5014416;28;20226;-57
2022/02/28 04:23:05;;;;;;;13.73;9.57;;;1.70;99.70;;;;;;5014700;28;20251;-55
2022/02/28 04:25:30;;;;;;;13.47;10.47;;;1.70;99.70;;;;;;5014612;28;20176;-49
2022/02/28 04:27:56;;;;;;;13.87;10.10;;;1.70;99.60;;;;;;5014345;28;20808;-54
2022/02/28 04:30:21;;;;;;;12.63;9.50;;;1.70;99.70;;;;;;5014628;28;20227;-56
2022/02/28 04:32:47;;;;;;;12.97;9.77;;;1.70;99.60;;;;;;5014427;28;20692;-52
2022/02/28 04:35:13;;;;;;;13.53;10.17;;;1.60;99.60;;;;;;5014619;28;20622;-54
2022/02/28 04:37:38;;;;;;;13.63;9.60;;;1.60;99.80;;;;;;5014083;28;20200;-51
2022/02/28 04:40:05;;;;;;;13.43;9.73;;;1.60;99.90;;;;;;5014364;28;20526;-57
2022/02/28 04:42:31;;;;;;;14.33;10.63;;;1.60;99.90;;;;;;5014228;28;20208;-54
2022/02/28 04:44:56;;;;;;;15.57;9.50;;;1.60;99.90;;;;;;5014210;28;20416;-52
2022/02/28 04:47:22;;;;;;;12.63;9.87;;;1.60;99.90;;;;;;5013911;28;20199;-57
2022/02/28 04:49:48;;;;;;;12.23;9.23;;;1.60;99.90;;;;;;5014289;28;20177;-52
2022/02/28 04:52:13;;;;;;;14.77;10.47;;;1.60;99.90;;;;;;5014117;28;20701;-56
2022/02/28 04:54:39;;;;;;;13.83;10.23;;;1.60;99.90;;;;;;5014189;28;20694;-51
2022/02/28 04:57:04;;;;;;;12.50;9.53;;;1.60;99.90;;;;;;5013486;28;20218;-54
2022/02/28 04:59:30;;;;;;;12.60;9.53;;;1.50;99.90;;;;;;5013997;28;20177;-49
2022/02/28 05:01:56;;;;;;;13.57;9.80;;;1.50;99.90;;;;;;5013902;28;20231;-54
2022/02/28 05:04:21;;;;;;;13.23;9.83;;;1.50;99.90;;;;;;5013792;28;20172;-56
2022/02/28 05:06:47;;;;;;;13.63;9.70;;;1.40;99.90;;;;;;5013607;28;20204;-57
2022/02/28 05:09:12;;;;;;;15.17;10.47;;;1.40;99.90;;;;;;5013841;28;20180;-50
2022/02/28 05:11:38;;;;;;;13.07;9.83;;;1.50;99.90;;;;;;5013695;28;20164;-57
2022/02/28 05:14:03;;;;;;;12.83;9.97;;;1.40;99.90;;;;;;5013596;28;20642;-57
2022/02/28 05:16:29;;;;;;;12.60;9.50;;;1.40;99.90;;;;;;5012939;28;20200;-57
2022/02/28 05:18:54;;;;;;;15.00;10.13;;;1.50;99.90;;;;;;5013508;28;20177;-51
2022/02/28 05:21:20;;;;;;;14.07;10.07;;;1.40;99.90;;;;;;5013619;28;20192;-57
2022/02/28 05:23:45;;;;;;;13.17;9.53;;;1.30;99.90;;;;;;5013445;28;20212;-55
2022/02/28 05:26:11;;;;;;;13.37;9.50;;;1.30;99.90;;;;;;5013181;28;20192;-53
2022/02/28 05:28:37;;;;;;;12.23;9.40;;;1.30;99.90;;;;;;5013391;28;20227;-51
2022/02/28 05:31:03;;;;;;;11.23;9.23;;;1.30;99.90;;;;;;5013335;28;20183;-57
2022/02/28 05:33:28;;;;;;;12.90;9.53;;;1.30;99.90;;;;;;5012557;28;20419;-57
2022/02/28 05:35:54;;;;;;;13.87;8.97;;;1.30;99.90;;;;;;5013048;28;20268;-55
2022/02/28 05:38:19;;;;;;;12.97;9.43;;;1.30;99.90;;;;;;5012994;28;20231;-52
2022/02/28 05:40:46;;;;;;;13.63;9.63;;;1.30;99.90;;;;;;5013120;28;20181;-58
2022/02/28 05:43:12;;;;;;;12.77;9.80;;;1.20;99.90;;;;;;5013002;28;20265;-51
2022/02/28 05:45:38;;;;;;;13.00;9.70;;;1.20;99.90;;;;;;5012625;28;20419;-50
2022/02/28 05:48:04;;;;;;;14.10;9.30;;;1.30;99.90;;;;;;5012848;28;20185;-55
2022/02/28 05:50:30;;;;;;;15.33;10.13;;;1.30;99.90;;;;;;5012971;28;20179;-52
2022/02/28 05:52:56;;;;;;;12.63;8.70;;;1.30;99.90;;;;;;5012911;28;20749;-56
2022/02/28 05:55:22;;;;;;;12.93;9.60;;;1.30;99.90;;;;;;5012956;28;20534;-56
2022/02/28 05:57:48;;;;;;;12.97;10.10;;;1.30;99.90;;;;;;5012372;28;20295;-57
2022/02/28 06:00:15;;;;;;;12.97;9.80;;;2.30;99.90;;;;;;5012641;28;20188;-56
2022/02/28 06:02:41;;;;;;;14.17;9.90;;;1.30;99.90;;;;;;5012555;28;20844;-57
2022/02/28 06:05:07;;;;;;;13.17;9.20;;;1.30;99.90;;;;;;5012667;28;20466;-57
2022/02/28 06:07:33;;;;;;;15.60;9.83;;;1.30;99.90;;;;;;5011015;28;20436;-57
2022/02/28 06:09:58;;;;;;;15.37;10.00;;;1.30;99.90;;;;;;5012490;28;20422;-57
2022/02/28 06:12:24;;;;;;;12.07;9.53;;;1.30;99.90;;;;;;5012576;28;20668;-55
2022/02/28 06:14:50;;;;;;;13.60;9.77;;;1.40;99.90;;;;;;5012528;28;20180;-57
2022/02/28 06:17:16;;;;;;;15.27;9.37;;;1.40;99.90;;;;;;5012038;28;20948;-57
2022/02/28 06:19:41;;;;;;;12.80;9.53;;;1.40;99.90;;;;;;5012427;28;20263;-55
2022/02/28 06:22:07;;;;;;;13.37;10.20;;;1.40;99.90;;;;;;5012407;28;20754;-57
2022/02/28 06:24:32;;;;;;;14.00;9.87;;;1.50;99.90;;;;;;5012251;28;20169;-58
2022/02/28 06:26:58;;;;;;;13.13;9.30;;;1.50;99.90;;;;;;5012013;28;20224;-58
2022/02/28 06:29:24;;;;;;;13.57;9.67;;;1.50;99.90;;;;;;5012252;28;20168;-57
2022/02/28 06:31:50;;;;;;;13.13;9.53;;;1.50;99.90;;;;;;5012291;28;20211;-57
2022/02/28 06:34:16;;;;;;;11.97;9.40;;;1.50;99.90;;;;;;5012243;28;21138;-56
2022/02/28 06:36:42;;;;;;;16.57;11.60;;;1.50;99.90;;;;;;5011943;28;20665;-58
2022/02/28 06:39:08;;;;;;;15.50;11.57;;;1.60;99.90;;;;;;5012264;28;20176;-55
2022/02/28 06:41:34;;;;;;;15.93;10.70;;;1.60;99.90;;;;;;5011972;28;20820;-57
2022/02/28 06:44:00;;;;;;;14.07;10.10;;;1.70;99.90;;;;;;5012049;28;20411;-53
2022/02/28 06:46:27;;;;;;;14.30;10.57;;;1.70;99.90;;;;;;5011722;28;20244;-54
2022/02/28 06:48:53;;;;;;;13.10;10.40;;;1.90;99.90;;;;;;5012003;28;20399;-56
2022/02/28 06:51:19;;;;;;;15.93;9.70;;;2.00;99.90;;;;;;5011897;28;20408;-52
2022/02/28 06:53:45;;;;;;;12.33;9.63;;;2.10;99.90;;;;;;5011960;28;20418;-54
2022/02/28 06:56:10;;;;;;;15.97;9.83;;;2.10;99.90;;;;;;5011637;28;20416;-53
2022/02/28 06:58:36;;;;;;;12.80;9.93;;;2.20;99.90;;;;;;5011698;28;20284;-52
2022/02/28 07:01:02;;;;;;;13.87;9.60;;;2.30;99.90;;;;;;5011940;28;20196;-57
2022/02/28 07:03:27;;;;;;;12.60;9.67;;;2.40;99.90;;;;;;5011946;28;20573;-53
2022/02/28 07:05:58;;;;;;;11.23;8.93;;;2.50;99.90;;;;;;5011827;28;20180;-53
2022/02/28 07:08:24;;;;;;;10.73;8.50;;;2.50;99.90;;;;;;5011646;28;20288;-55
2022/02/28 07:10:52;;;;;;;10.93;8.17;;;2.60;99.90;;;;;;5011970;28;20412;-54
2022/02/28 07:13:18;;;;;;;11.77;8.67;;;2.60;99.50;;;;;;5012021;28;20900;-55
2022/02/28 07:15:45;;;;;;;12.37;8.33;;;2.60;99.40;;;;;;5011617;28;20415;-55
2022/02/28 07:18:12;;;;;;;11.97;8.43;;;2.60;99.10;;;;;;5011716;28;20839;-55
2022/02/28 07:20:37;;;;;;;13.03;8.53;;;2.60;99.40;;;;;;5011949;28;20550;-55
2022/02/28 07:23:04;;;;;;;13.13;8.83;;;2.60;99.20;;;;;;5011751;28;20554;-53
2022/02/28 07:25:32;;;;;;;12.17;9.03;;;2.60;99.30;;;;;;5011706;28;20184;-55
2022/02/28 07:27:58;;;;;;;11.57;8.97;;;2.60;99.20;;;;;;5011620;28;20482;-57
2022/02/28 07:30:24;;;;;;;12.17;8.90;;;2.70;99.20;;;;;;5011753;28;20971;-55
2022/02/28 07:32:50;;;;;;;14.27;9.57;;;2.80;99.10;;;;;;5011578;28;20235;-56
2022/02/28 07:35:16;;;;;;;11.53;8.70;;;2.80;99.20;;;;;;5011620;28;20263;-55
2022/02/28 07:37:41;;;;;;;13.03;9.37;;;2.90;99.20;;;;;;5011222;28;20698;-54
2022/02/28 07:40:11;;;;;;;13.13;9.47;;;3.00;99.00;;;;;;5011771;28;20208;-56
2022/02/28 07:42:37;;;;;;;13.50;9.80;;;3.10;99.00;;;;;;5011671;28;20197;-56
2022/02/28 07:45:06;;;;;;;12.43;9.80;;;3.20;99.10;;;;;;5011579;28;20439;-56
2022/02/28 07:47:31;;;;;;;14.60;9.93;;;3.40;99.30;;;;;;5011396;28;20549;-55
2022/02/28 07:49:57;;;;;;;14.70;10.30;;;3.50;99.10;;;;;;5011660;28;20169;-53
2022/02/28 07:52:23;;;;;;;13.77;10.10;;;3.70;98.90;;;;;;5011608;28;20186;-56
2022/02/28 07:54:48;;;;;;;14.20;10.23;;;3.90;98.80;;;;;;5011672;28;20650;-57
2022/02/28 07:57:14;;;;;;;14.47;10.53;;;4.10;98.40;;;;;;5013834;28;20291;-52
2022/02/28 07:59:40;;;;;;;12.57;9.37;;;4.20;98.10;;;;;;5015173;28;20177;-55
2022/02/28 08:02:07;;;;;;;13.30;9.93;;;4.20;97.90;;;;;;5015077;28;20210;-55
2022/02/28 08:04:32;;;;;;;14.80;10.13;;;4.30;97.90;;;;;;5015084;28;20169;-55
2022/02/28 08:06:58;;;;;;;12.53;9.03;;;4.30;97.70;;;;;;5014565;28;20189;-55
2022/02/28 08:09:24;;;;;;;13.80;10.00;;;4.40;97.60;;;;;;5014983;28;20169;-54
2022/02/28 08:11:50;;;;;;;13.37;9.80;;;4.50;97.60;;;;;;5015014;28;20196;-57
2022/02/28 08:14:16;;;;;;;15.07;9.57;;;4.60;97.50;;;;;;5014913;28;20168;-58
2022/02/28 08:16:42;;;;;;;15.23;9.67;;;4.80;97.30;;;;;;5014457;28;20223;-55
2022/02/28 08:19:07;;;;;;;12.20;9.20;;;5.00;97.80;;;;;;5014884;28;20244;-53
2022/02/28 08:21:33;;;;;;;12.67;9.30;;;5.30;97.70;;;;;;5014660;28;20175;-56
2022/02/28 08:23:59;;;;;;;12.10;8.83;;;5.60;96.80;;;;;;5013503;28;20696;-58
2022/02/28 08:26:24;;;;;;;12.43;8.87;;;5.80;95.90;;;;;;5014293;28;20168;-57
2022/02/28 08:28:50;;;;;;;11.90;8.57;;;5.90;95.40;;;;;;5014579;28;20226;-58
2022/02/28 08:31:15;;;;;;;11.70;8.97;;;5.90;95.30;;;;;;5014726;28;20215;-55
2022/02/28 08:33:41;;;;;;;10.90;7.90;;;6.10;94.90;;;;;;5014469;28;20165;-58
2022/02/28 08:36:06;;;;;;;12.70;8.63;;;6.30;94.30;;;;;;5014058;28;20230;-58
2022/02/28 08:38:32;;;;;;;15.07;8.57;;;6.50;93.90;;;;;;5014251;28;20677;-54
2022/02/28 08:40:57;;;;;;;11.50;8.70;;;6.70;93.90;;;;;;5014444;28;20215;-57
2022/02/28 08:43:23;;;;;;;11.70;8.90;;;7.10;93.70;;;;;;5014320;28;20275;-58
2022/02/28 08:45:48;;;;;;;12.73;9.43;;;7.60;91.80;;;;;;5014081;28;20196;-54
2022/02/28 08:48:14;;;;;;;11.10;8.60;;;8.00;93.00;;;;;;5013991;28;20230;-57
2022/02/28 08:50:40;;;;;;;9.90;7.60;;;9.10;92.70;;;;;;5014235;28;20181;-55
2022/02/28 08:53:05;;;;;;;9.40;7.93;;;10.30;88.40;;;;;;5014402;28;20176;-56
2022/02/28 08:55:31;;;;;;;10.30;8.30;;;11.80;82.60;;;;;;5013954;28;20259;-54
2022/02/28 08:57:56;;;;;;;11.43;8.80;;;13.10;76.80;;;;;;5097274;23;20322;-53
2022/02/28 09:00:22;;;;;;;9.50;7.30;;;13.90;73.20;;;;;;5032722;28;20588;-52
2022/02/28 09:02:48;;;;;;;11.20;7.57;;;14.90;67.10;;;;;;5033148;28;20620;-51
2022/02/28 09:05:14;;;;;;;7.60;6.40;;;15.90;61.90;;;;;;5033304;28;20243;-50
2022/02/28 09:07:39;;;;;;;9.57;7.40;;;17.20;59.30;;;;;;5030343;28;20200;-54
2022/02/28 09:10:05;;;;;;;8.10;6.93;;;18.70;53.70;;;;;;5033664;28;20260;-54
2022/02/28 09:12:31;;;;;;;8.48;7.13;;;19.90;51.30;;;;;;5032123;28;20184;-57
2022/02/28 09:14:57;;;;;;;7.45;6.68;;;21.50;48.00;;;;;;5032000;28;20184;-50
2022/02/28 09:17:22;;;;;;;8.13;7.32;;;22.90;45.20;;;;;;5032831;28;20250;-59
2022/02/28 09:19:48;;;;;;;7.47;6.65;;;24.90;42.60;;;;;;5033348;28;20180;-57
2022/02/28 09:22:15;;;;;;;7.32;6.63;;;27.00;38.90;;;;;;5033258;28;20689;-51
2022/02/28 09:24:41;;;;;;;6.78;6.03;;;28.10;35.40;;;;;;5033299;28;20167;-56
2022/02/28 09:27:07;;;;;;;7.10;6.40;;;29.10;33.40;;;;;;5031603;28;20242;-54
2022/02/28 09:29:33;;;;;;;6.32;5.72;;;30.30;31.50;;;;;;5033169;28;20549;-57
2022/02/28 09:31:59;;;;;;;6.00;5.35;;;31.40;29.10;;;;;;5031830;28;20184;-57
2022/02/28 09:34:25;;;;;;;6.70;6.00;;;32.90;28.10;;;;;;5032758;28;20180;-57
2022/02/28 09:36:51;;;;;;;6.40;5.80;;;34.30;26.70;;;;;;5032705;28;20183;-58
2022/02/28 09:39:19;;;;;;;6.50;5.90;;;35.50;26.00;;;;;;5033202;28;20180;-58
2022/02/28 09:41:45;;;;;;;6.32;5.72;;;36.50;24.90;;;;;;5032865;28;20183;-59
2022/02/28 09:44:14;;;;;;;6.25;5.65;;;37.40;24.00;;;;;;5032925;28;20178;-58
2022/02/28 09:46:41;;;;;;;7.00;6.30;;;38.20;22.80;;;;;;5031420;28;20195;-56
2022/02/28 09:49:08;;;;;;;6.68;6.03;;;38.90;22.10;;;;;;5032624;28;20206;-57
2022/02/28 09:51:34;;;;;;;6.32;5.72;;;39.50;21.60;;;;;;5032860;28;20298;-59
2022/02/28 09:54:00;;;;;;;6.20;5.60;;;40.10;21.00;;;;;;5032670;28;20210;-60
2022/02/28 09:56:26;;;;;;;6.50;5.90;;;40.50;20.30;;;;;;5032389;28;20175;-59
2022/02/28 09:58:53;;;;;;;6.03;5.43;;;41.20;20.40;;;;;;5032486;28;20257;-60
2022/02/28 10:01:18;;;;;;;6.20;5.60;;;41.90;19.50;;;;;;5032676;28;20872;-58
2022/02/28 10:03:44;;;;;;;5.75;5.20;;;42.30;18.90;;;;;;5032583;28;20593;-59
2022/02/28 10:06:10;;;;;;;5.30;4.80;;;42.80;18.60;;;;;;5031942;28;20579;-60
2022/02/28 10:09:04;;;;;;;5.70;5.20;;;43.50;17.70;;;;;;5032170;28;20223;-59
2022/02/28 10:11:33;;;;;;;5.63;4.80;;;44.00;17.20;;;;;;5032481;28;20652;-59
2022/02/28 10:14:02;;;;;;;5.47;4.95;;;44.00;16.80;;;;;;5032320;28;20572;-60
2022/02/28 10:16:32;;;;;;;6.13;5.55;;;43.90;16.50;;;;;;5032052;28;20163;-60
2022/02/28 10:18:57;;;;;;;5.50;5.00;;;44.10;15.80;;;;;;5031936;28;20217;-59
2022/02/28 10:21:45;;;;;;;5.60;5.07;;;44.40;15.90;;;;;;5032190;28;20197;-59
2022/02/28 10:24:30;;;;;;;5.55;4.97;;;44.40;15.70;;;;;;5032343;28;20170;-60
2022/02/28 10:26:57;;;;;;;6.00;5.40;;;44.50;15.30;;;;;;5031713;28;20189;-60
2022/02/28 10:29:38;;;;;;;5.70;5.10;;;44.40;15.10;;;;;;5032198;28;20179;-61
2022/02/28 10:32:06;;;;;;;5.07;4.68;;;44.50;15.00;;;;;;5032068;28;20203;-60
2022/02/28 10:34:34;;;;;;;5.00;4.47;;;44.90;13.90;;;;;;5032162;28;20647;-60
2022/02/28 10:37:00;;;;;;;6.00;4.70;;;44.30;13.10;;;;;;5031716;28;20254;-60
2022/02/28 10:39:33;;;;;;;5.60;5.10;;;44.20;14.00;;;;;;5031901;28;20573;-60
2022/02/28 10:42:16;;;;;;;5.60;5.10;;;44.20;14.20;;;;;;5032070;28;20205;-59
2022/02/28 10:44:42;;;;;;;5.25;4.85;;;44.60;14.50;;;;;;5031960;28;20175;-60
2022/02/28 10:47:10;;;;;;;3.90;3.60;;;45.30;14.00;;;;;;5031701;28;20195;-60
2022/02/28 10:49:38;;;;;;;4.20;3.80;;;45.80;12.70;;;;;;5031800;28;20180;-61
2022/02/28 10:52:13;;;;;;;4.05;3.65;;;45.90;11.80;;;;;;5031931;28;20194;-59
2022/02/28 10:54:46;;;;;;;3.42;3.10;;;45.80;10.60;;;;;;5031911;28;20225;-58
2022/02/28 10:57:19;;;;;;;4.43;3.45;;;44.20;10.30;;;;;;5031370;28;20558;-58
2022/02/28 10:59:55;;;;;;;3.40;3.10;;;42.90;11.70;;;;;;5031699;28;20226;-60
2022/02/28 11:02:21;;;;;;;3.40;3.10;;;42.80;11.60;;;;;;5031991;28;20179;-59
2022/02/28 11:04:46;;;;;;;3.10;2.90;;;43.40;10.90;;;;;;5031815;28;20182;-59
2022/02/28 11:07:22;;;;;;;3.75;3.45;;;43.60;10.10;;;;;;5031391;28;20197;-58
2022/02/28 11:09:48;;;;;;;3.80;3.50;;;43.60;11.40;;;;;;5031550;28;20175;-60
2022/02/28 11:12:28;;;;;;;3.70;3.40;;;43.60;11.50;;;;;;5031554;28;20686;-57
2022/02/28 11:14:57;;;;;;;3.10;2.80;;;44.10;11.80;;;;;;5031179;28;20679;-57
2022/02/28 11:17:29;;;;;;;3.00;2.70;;;44.70;10.10;;;;;;5030935;28;20286;-58
2022/02/28 11:19:58;;;;;;;2.90;2.70;;;44.80;9.30;;;;;;5031506;28;20359;-57
2022/02/28 11:22:23;;;;;;;3.72;3.15;;;44.80;9.20;;;;;;5031573;28;20180;-58
2022/02/28 11:24:49;;;;;;;3.20;3.00;;;44.90;9.40;;;;;;5031596;28;20176;-58
2022/02/28 11:27:16;;;;;;;4.22;3.72;;;45.20;9.20;;;;;;5031198;28;20195;-57
2022/02/28 11:29:43;;;;;;;4.28;3.88;;;45.20;9.90;;;;;;5031435;28;20195;-57
2022/02/28 11:32:10;;;;;;;3.38;3.05;;;44.80;10.00;;;;;;5034493;28;20191;-58
2022/02/28 11:34:36;;;;;;;3.88;3.20;;;44.30;8.60;;;;;;5035338;28;20613;-57
2022/02/28 11:37:04;;;;;;;3.80;3.50;;;43.90;8.20;;;;;;5034844;28;20270;-58
2022/02/28 11:39:40;;;;;;;3.83;3.53;;;43.40;8.80;;;;;;5035236;28;20186;-58
2022/02/28 11:42:08;;;;;;;3.80;3.50;;;43.00;9.80;;;;;;5035247;28;20263;-55
2022/02/28 11:44:52;;;;;;;3.58;3.28;;;43.00;10.10;;;;;;5035147;28;20306;-59
2022/02/28 11:47:19;;;;;;;3.47;3.08;;;43.40;9.00;;;;;;5034982;28;20282;-57
2022/02/28 11:49:46;;;;;;;3.80;3.50;;;43.80;9.40;;;;;;5035139;28;20183;-56
2022/02/28 11:52:32;;;;;;;3.88;3.47;;;43.20;8.70;;;;;;5034977;28;20203;-57
2022/02/28 11:55:05;;;;;;;3.95;3.20;;;42.20;9.50;;;;;;5035209;28;20207;-58
2022/02/28 11:57:51;;;;;;;3.58;3.25;;;42.20;8.60;;;;;;5034663;28;20211;-58
2022/02/28 12:00:40;;;;;;;4.03;3.63;;;42.50;9.60;;;;;;5034859;28;20564;-58
2022/02/28 12:03:15;;;;;;;3.50;3.20;;;42.70;9.70;;;;;;5031982;28;20183;-59
2022/02/28 12:05:42;;;;;;;3.47;3.17;;;42.40;9.40;;;;;;5034708;28;20265;-59
2022/02/28 12:08:15;;;;;;;3.47;3.17;;;42.50;9.40;;;;;;5034550;28;20246;-59
2022/02/28 12:10:54;;;;;;;3.53;3.22;;;42.90;8.80;;;;;;5034926;28;20660;-58
2022/02/28 12:13:36;;;;;;;3.70;3.40;;;43.10;8.60;;;;;;5034730;28;20199;-57
2022/02/28 12:16:09;;;;;;;3.90;3.50;;;42.50;9.20;;;;;;5034382;28;20172;-57
2022/02/28 12:18:34;;;;;;;3.78;3.38;;;42.30;9.00;;;;;;5034522;28;20460;-59
2022/02/28 12:21:07;;;;;;;3.92;3.63;;;42.20;8.60;;;;;;5034579;28;20763;-54
2022/02/28 12:23:44;;;;;;;4.13;3.58;;;41.50;8.80;;;;;;5034474;28;20167;-55
2022/02/28 12:26:11;;;;;;;4.75;3.80;;;40.70;8.70;;;;;;5034183;28;20175;-53
2022/02/28 12:28:36;;;;;;;5.00;4.60;;;39.90;10.40;;;;;;5034364;28;20196;-54
2022/02/28 12:31:02;;;;;;;4.60;4.20;;;39.30;10.50;;;;;;5034370;28;20545;-53
2022/02/28 12:33:33;;;;;;;5.25;4.75;;;38.90;11.20;;;;;;5034231;28;20191;-54
2022/02/28 12:36:11;;;;;;;6.28;5.68;;;38.50;11.70;;;;;;5034013;28;20202;-54
2022/02/28 12:38:40;;;;;;;5.20;4.70;;;37.70;12.00;;;;;;5034185;28;20270;-55
2022/02/28 12:41:09;;;;;;;5.75;5.22;;;37.50;12.20;;;;;;5034142;28;20172;-57
2022/02/28 12:43:36;;;;;;;5.45;4.93;;;37.50;12.50;;;;;;5033984;28;20314;-56
2022/02/28 12:46:06;;;;;;;5.85;4.80;;;37.30;12.40;;;;;;5033846;28;20171;-57